LFPO/ORY METAR and TAF weather

Enter ICAO airport designator
Station Type Date Time Source
LFPO METAR 2022/06/26 08:30 UTC NOAA

LFPO 260830Z 25004KT 180V290 9999 FEW024 BKN260 18/11 Q1016 NOSIG


Station Type Date Time Source
LFPO Decoded METAR 2022/06/26 08:30 UTC NOAA

Paris-Orly, France (LFPO) 48-44N 002-24E 96M
Jun 26, 2022 - 04:30 AM EDT / 2022.06.26 0830 UTC
Wind: from the WSW (250 degrees) at 5 MPH (4 KT) (direction variable):0
Visibility: greater than 7 mile(s):0
Sky conditions: mostly cloudy
Temperature: 64 F (18 C)
Dew Point: 51 F (11 C)
Relative Humidity: 63%
Pressure (altimeter): 30.00 in. Hg (1016 hPa)
ob: LFPO 260830Z 25004KT 180V290 9999 FEW024 BKN260 18/11 Q1016 NOSIG
cycle: 8

Station Type Date Time Source
LFPO TAF 2022/06/26 06:25 UTC NOAA

TAF LFPO 260500Z 2606/2712 20006KT CAVOK
BECMG 2612/2615 16006KT PROB40
TEMPO 2615/2621 -RA
BECMG 2622/2624 20005KT

Example: see airport list